Time;durP1;ratioP1;P1;durP2;ratioP2;P2;SDS_P1;SDS_P2;PMS_P1;PMS_P2;Temp;Humidity;BMP_temperature;BMP_pressure;BME280_temperature;BME280_humidity;BME280_pressure;Samples;Min_cycle;Max_cycle;Signal;HPM_P1;HPM_P2
2024/02/18 00:02:09;;;;;;;28.13;17.27;;;14.40;97.10;;;;;;5102564;28;20120;-80
2024/02/18 00:04:35;;;;;;;30.23;17.52;;;14.40;97.10;;;;;;5106721;28;20055;-79
2024/02/18 00:07:01;;;;;;;27.90;15.50;;;14.50;97.10;;;;;;5093793;28;20039;-80
2024/02/18 00:09:26;;;;;;;28.10;16.83;;;14.40;97.10;;;;;;5102231;28;20027;-80
2024/02/18 00:11:52;;;;;;;38.03;16.08;;;14.40;97.20;;;;;;5102865;28;20459;-80
2024/02/18 00:14:17;;;;;;;31.42;16.42;;;14.40;97.20;;;;;;5090640;28;20016;-80
2024/02/18 00:16:43;;;;;;;29.02;15.70;;;14.40;97.30;;;;;;5091936;28;20155;-80
2024/02/18 00:19:12;;;;;;;30.00;15.77;;;14.40;97.40;;;;;;5103865;28;20050;-80
2024/02/18 00:21:38;;;;;;;30.75;16.52;;;14.30;97.40;;;;;;5099466;28;20059;-80
2024/02/18 00:24:04;;;;;;;33.25;16.92;;;14.30;97.50;;;;;;5099613;28;20471;-79
2024/02/18 00:26:30;;;;;;;33.97;16.08;;;14.30;97.50;;;;;;5105640;28;20031;-80
2024/02/18 00:28:56;;;;;;;26.00;14.18;;;14.40;97.60;;;;;;5090642;28;20208;-79
2024/02/18 00:31:22;;;;;;;28.45;8.73;;;14.30;97.60;;;;;;5090483;28;20507;-78
2024/02/18 00:33:48;;;;;;;17.70;10.18;;;14.30;97.70;;;;;;5090225;28;20063;-79
2024/02/18 00:36:14;;;;;;;24.92;14.80;;;14.30;97.70;;;;;;5089155;28;20471;-80
2024/02/18 00:38:39;;;;;;;30.45;15.82;;;14.20;97.70;;;;;;5109463;28;20463;-79
2024/02/18 00:41:06;;;;;;;15.25;7.78;;;14.20;97.80;;;;;;5094673;28;20058;-80
2024/02/18 00:43:32;;;;;;;29.33;11.48;;;14.20;98.00;;;;;;5102505;28;20585;-80
2024/02/18 00:45:58;;;;;;;9.63;6.30;;;14.10;98.10;;;;;;5091735;28;20036;-80
2024/02/18 00:48:24;;;;;;;23.33;11.57;;;14.10;98.30;;;;;;5099634;28;20032;-79
2024/02/18 00:50:49;;;;;;;29.70;14.35;;;14.00;98.50;;;;;;5087475;28;20036;-79
2024/02/18 00:53:15;;;;;;;14.40;8.93;;;13.90;98.60;;;;;;5110465;28;20077;-79
2024/02/18 00:55:43;;;;;;;15.10;8.85;;;13.90;98.80;;;;;;5096571;28;20024;-80
2024/02/18 00:58:10;;;;;;;20.98;11.40;;;13.90;98.80;;;;;;5103669;28;20054;-79
2024/02/18 01:00:36;;;;;;;22.70;10.18;;;13.90;98.90;;;;;;5090889;28;20028;-80
2024/02/18 01:03:02;;;;;;;22.33;12.38;;;13.90;99.00;;;;;;5101364;28;20057;-79
2024/02/18 01:05:28;;;;;;;22.77;11.68;;;13.90;99.00;;;;;;5098665;28;20711;-80
2024/02/18 01:07:53;;;;;;;15.43;6.88;;;13.80;99.00;;;;;;5089728;28;20035;-80
2024/02/18 01:10:19;;;;;;;13.30;7.55;;;13.80;99.10;;;;;;5089183;28;20024;-79
2024/02/18 01:12:44;;;;;;;24.75;12.57;;;13.80;99.20;;;;;;5096342;28;20490;-79
2024/02/18 01:15:10;;;;;;;21.85;8.18;;;13.80;99.10;;;;;;5097998;28;20035;-80
2024/02/18 01:17:36;;;;;;;11.52;7.15;;;13.90;99.20;;;;;;5104482;28;20044;-80
2024/02/18 01:20:01;;;;;;;22.60;14.32;;;13.80;99.20;;;;;;5093099;28;20039;-80
2024/02/18 01:22:27;;;;;;;25.60;9.55;;;13.80;99.20;;;;;;5097207;28;20043;-80
2024/02/18 01:24:53;;;;;;;25.35;13.88;;;13.80;99.30;;;;;;5087990;28;20024;-80
2024/02/18 01:27:19;;;;;;;16.02;8.75;;;13.80;99.40;;;;;;5089711;28;20024;-79
2024/02/18 01:29:45;;;;;;;18.17;8.93;;;13.80;99.40;;;;;;5092725;28;20391;-79
2024/02/18 01:32:10;;;;;;;13.75;7.32;;;13.70;99.40;;;;;;5088125;28;20132;-79
2024/02/18 01:34:36;;;;;;;26.23;13.80;;;13.80;99.50;;;;;;5096033;28;20481;-79
2024/02/18 01:37:01;;;;;;;16.58;7.65;;;13.80;99.40;;;;;;5100721;28;20032;-80
2024/02/18 01:39:27;;;;;;;20.60;12.77;;;13.70;99.50;;;;;;5101862;28;20467;-79
2024/02/18 01:41:53;;;;;;;28.27;10.60;;;13.70;99.60;;;;;;5088593;28;20350;-80
2024/02/18 01:44:18;;;;;;;14.90;8.50;;;13.80;99.60;;;;;;5089859;28;20024;-80
2024/02/18 01:46:44;;;;;;;14.82;9.38;;;13.80;99.50;;;;;;5103416;28;20023;-79
2024/02/18 01:49:12;;;;;;;7.90;5.18;;;13.80;99.60;;;;;;5090026;28;20031;-79
2024/02/18 01:51:38;;;;;;;24.23;13.23;;;13.70;99.60;;;;;;5088767;28;20495;-80
2024/02/18 01:54:05;;;;;;;10.52;6.47;;;13.70;99.70;;;;;;5101604;28;20028;-80
2024/02/18 01:56:31;;;;;;;11.63;6.93;;;13.70;99.80;;;;;;5095314;28;20043;-80
2024/02/18 01:59:00;;;;;;;24.08;11.70;;;13.70;99.80;;;;;;5096219;28;20042;-80
2024/02/18 02:01:27;;;;;;;12.55;4.47;;;13.70;99.80;;;;;;5088952;28;20028;-80
2024/02/18 02:03:55;;;;;;;14.95;7.82;;;13.70;99.80;;;;;;5096856;28;20479;-80
2024/02/18 02:06:22;;;;;;;7.13;3.78;;;13.70;99.90;;;;;;5097458;28;20059;-80
2024/02/18 02:08:48;;;;;;;13.05;6.85;;;13.70;99.80;;;;;;5096131;28;20036;-80
2024/02/18 02:11:14;;;;;;;7.18;4.22;;;13.70;99.80;;;;;;5088857;28;20020;-78
2024/02/18 02:13:40;;;;;;;19.35;8.45;;;13.70;99.90;;;;;;5088531;28;20392;-80
2024/02/18 02:16:06;;;;;;;19.17;8.43;;;13.70;99.90;;;;;;5087352;28;20035;-80
2024/02/18 02:18:33;;;;;;;14.52;6.75;;;13.70;99.90;;;;;;5095463;28;20078;-79
2024/02/18 02:20:59;;;;;;;22.60;9.27;;;13.70;99.90;;;;;;5088548;28;20414;-79
2024/02/18 02:23:24;;;;;;;22.85;12.93;;;13.70;99.90;;;;;;5092282;28;20028;-80
2024/02/18 02:25:53;;;;;;;19.95;9.77;;;13.70;99.90;;;;;;5090796;28;20024;-79
2024/02/18 02:28:24;;;;;;;18.55;9.30;;;13.70;99.90;;;;;;5093836;28;20035;-80
2024/02/18 02:30:50;;;;;;;18.50;10.05;;;13.70;99.80;;;;;;5089111;28;20036;-80
2024/02/18 02:33:19;;;;;;;16.98;10.18;;;13.70;99.90;;;;;;5093456;28;20039;-79
2024/02/18 02:35:46;;;;;;;22.77;9.85;;;13.70;99.90;;;;;;5098631;28;20034;-79
2024/02/18 02:38:12;;;;;;;8.93;4.68;;;13.70;99.90;;;;;;5105606;28;20471;-79
2024/02/18 02:40:38;;;;;;;16.30;7.53;;;13.70;99.80;;;;;;5097602;28;20115;-79
2024/02/18 02:43:04;;;;;;;15.88;6.97;;;13.70;99.80;;;;;;5097074;28;20470;-79
2024/02/18 02:45:30;;;;;;;13.73;7.50;;;13.70;99.90;;;;;;5098555;28;20386;-79
2024/02/18 02:47:56;;;;;;;19.08;10.35;;;13.80;99.90;;;;;;5110041;28;20474;-79
2024/02/18 02:50:22;;;;;;;17.65;6.80;;;13.70;99.90;;;;;;5097707;28;20140;-80
2024/02/18 02:52:47;;;;;;;10.88;6.50;;;13.70;99.90;;;;;;5103795;28;20035;-79
2024/02/18 02:55:13;;;;;;;9.43;5.60;;;13.60;99.90;;;;;;5102684;28;20043;-79
2024/02/18 02:57:39;;;;;;;15.73;7.63;;;13.60;99.90;;;;;;5098199;28;20126;-80
2024/02/18 03:00:09;;;;;;;13.27;7.60;;;13.60;99.90;;;;;;5106934;28;20035;-79
2024/02/18 03:02:41;;;;;;;11.63;5.22;;;13.60;99.90;;;;;;5105204;28;20676;-79
2024/02/18 03:05:09;;;;;;;11.43;6.00;;;13.60;99.90;;;;;;5091406;28;20471;-78
2024/02/18 03:07:37;;;;;;;15.75;7.35;;;13.60;99.90;;;;;;5092430;28;20024;-79
2024/02/18 03:10:06;;;;;;;21.42;4.88;;;13.50;99.90;;;;;;5096612;28;20364;-79
2024/02/18 03:12:32;;;;;;;4.18;2.38;;;13.60;99.90;;;;;;5108136;28;20031;-79
2024/02/18 03:14:58;;;;;;;5.75;3.85;;;13.60;99.90;;;;;;5113585;27;20034;-79
2024/02/18 03:17:25;;;;;;;14.75;7.20;;;13.60;99.90;;;;;;5116605;27;20039;-79
2024/02/18 03:19:52;;;;;;;15.40;7.25;;;13.60;99.90;;;;;;5121553;27;20031;-79
2024/02/18 03:22:23;;;;;;;15.77;6.97;;;13.60;99.90;;;;;;5101591;27;20402;-80
2024/02/18 03:24:51;;;;;;;12.85;7.13;;;13.50;99.90;;;;;;5102942;27;20058;-80
2024/02/18 03:27:17;;;;;;;12.95;5.65;;;13.50;99.90;;;;;;5105863;27;20075;-79
2024/02/18 03:29:44;;;;;;;15.93;5.78;;;13.50;99.90;;;;;;5101697;27;20028;-79
2024/02/18 03:32:10;;;;;;;7.18;3.67;;;13.50;99.90;;;;;;5109559;27;20038;-79
2024/02/18 03:34:36;;;;;;;7.03;3.78;;;13.40;99.90;;;;;;5100399;28;20028;-79
2024/02/18 03:37:02;;;;;;;5.47;3.40;;;13.40;99.90;;;;;;5091931;28;20051;-79
2024/02/18 03:39:27;;;;;;;13.95;7.15;;;13.50;99.90;;;;;;5105277;28;20039;-79
2024/02/18 03:41:53;;;;;;;16.02;6.15;;;13.50;99.90;;;;;;5104014;28;20044;-79
2024/02/18 03:44:18;;;;;;;13.30;5.80;;;13.40;99.90;;;;;;5096869;28;20027;-79
2024/02/18 03:46:44;;;;;;;4.68;2.85;;;13.40;99.90;;;;;;5101112;28;20036;-79
2024/02/18 03:49:10;;;;;;;9.18;3.92;;;13.40;99.90;;;;;;5115354;27;20084;-79
2024/02/18 03:51:35;;;;;;;9.90;5.55;;;13.40;99.90;;;;;;5092574;28;20078;-79
2024/02/18 03:54:01;;;;;;;9.10;3.83;;;13.40;99.90;;;;;;5103763;28;20428;-80
2024/02/18 03:56:27;;;;;;;11.57;5.07;;;13.40;99.90;;;;;;5098475;28;20047;-79
2024/02/18 03:58:52;;;;;;;8.32;4.13;;;13.40;99.90;;;;;;5099382;28;20548;-80
2024/02/18 04:01:18;;;;;;;9.13;4.90;;;13.40;99.90;;;;;;5099558;28;20055;-80
2024/02/18 04:03:43;;;;;;;9.80;4.00;;;13.30;99.90;;;;;;5107908;28;20028;-79
2024/02/18 04:06:09;;;;;;;7.32;3.17;;;13.30;99.90;;;;;;5096209;28;20039;-80
2024/02/18 04:08:35;;;;;;;36.00;3.70;;;13.30;99.90;;;;;;5103447;28;20032;-79
2024/02/18 04:11:01;;;;;;;13.68;5.78;;;13.30;99.90;;;;;;5096239;28;20040;-80
2024/02/18 04:13:27;;;;;;;8.13;4.25;;;13.30;99.90;;;;;;5094561;28;20028;-85
2024/02/18 04:15:52;;;;;;;4.68;2.58;;;13.30;99.90;;;;;;5093116;28;20050;-80
2024/02/18 04:18:24;;;;;;;9.95;3.72;;;13.30;99.90;;;;;;5104188;28;20044;-80
2024/02/18 04:20:53;;;;;;;9.88;3.20;;;13.30;99.90;;;;;;5090798;28;20047;-80
2024/02/18 04:23:18;;;;;;;10.98;3.45;;;13.30;99.90;;;;;;5104648;27;20038;-79
2024/02/18 04:25:44;;;;;;;4.07;2.70;;;13.30;99.90;;;;;;5109735;28;20471;-79
2024/02/18 04:28:09;;;;;;;9.15;3.45;;;13.40;99.90;;;;;;5090106;28;20513;-80
2024/02/18 04:30:35;;;;;;;8.55;3.08;;;13.40;99.90;;;;;;5091116;28;20032;-79
2024/02/18 04:33:01;;;;;;;4.93;2.60;;;13.40;99.90;;;;;;5090828;28;20036;-80
2024/02/18 04:35:26;;;;;;;6.07;3.53;;;13.40;99.90;;;;;;5105366;28;20526;-80
2024/02/18 04:37:52;;;;;;;6.28;3.15;;;13.40;99.90;;;;;;5104013;28;20479;-79
2024/02/18 04:40:17;;;;;;;3.78;1.83;;;13.40;99.90;;;;;;5091923;28;20475;-80
2024/02/18 04:42:43;;;;;;;11.75;5.13;;;13.40;99.90;;;;;;5100774;28;20070;-79
2024/02/18 04:45:09;;;;;;;2.78;1.88;;;13.40;99.90;;;;;;5104279;28;20027;-79
2024/02/18 04:47:35;;;;;;;4.90;2.92;;;13.50;99.90;;;;;;5089019;28;20039;-80
2024/02/18 04:50:03;;;;;;;15.73;3.67;;;13.50;99.90;;;;;;5103776;28;20039;-80
2024/02/18 04:52:30;;;;;;;8.52;3.17;;;13.40;99.90;;;;;;5095467;28;20031;-79
2024/02/18 04:54:56;;;;;;;10.63;4.13;;;13.40;99.90;;;;;;5103287;28;20036;-80
2024/02/18 04:57:22;;;;;;;5.05;2.55;;;13.40;99.90;;;;;;5102042;28;20080;-80
2024/02/18 04:59:47;;;;;;;4.78;2.55;;;13.40;99.90;;;;;;5101163;28;20138;-79
2024/02/18 05:02:14;;;;;;;2.92;1.55;;;13.40;99.90;;;;;;5091968;28;20047;-79
2024/02/18 05:04:40;;;;;;;7.10;1.98;;;13.40;99.90;;;;;;5093902;28;20028;-79
2024/02/18 05:07:06;;;;;;;8.30;2.42;;;13.40;99.90;;;;;;5098423;28;20506;-79
2024/02/18 05:09:31;;;;;;;5.47;2.72;;;13.40;99.90;;;;;;5098646;28;20020;-80
2024/02/18 05:11:57;;;;;;;2.55;1.92;;;13.40;99.90;;;;;;5089102;28;20028;-79
2024/02/18 05:14:23;;;;;;;7.10;4.50;;;13.30;99.90;;;;;;5092804;28;20424;-79
2024/02/18 05:16:48;;;;;;;2.28;1.90;;;13.40;99.90;;;;;;5099299;28;20364;-79
2024/02/18 05:19:14;;;;;;;11.02;2.75;;;13.40;99.90;;;;;;5088064;28;20471;-79
2024/02/18 05:21:40;;;;;;;3.58;2.10;;;13.40;99.90;;;;;;5092524;28;20472;-79
2024/02/18 05:24:06;;;;;;;7.90;1.92;;;13.40;99.90;;;;;;5097560;28;20757;-79
2024/02/18 05:26:31;;;;;;;3.13;1.95;;;13.40;99.90;;;;;;5102546;28;20038;-80
2024/02/18 05:28:57;;;;;;;7.60;2.25;;;13.30;99.90;;;;;;5108290;28;20050;-79
2024/02/18 05:31:26;;;;;;;9.27;2.85;;;13.30;99.90;;;;;;5093324;28;20387;-79
2024/02/18 05:33:52;;;;;;;3.25;2.45;;;13.40;99.90;;;;;;5095836;28;20130;-79
2024/02/18 05:36:41;;;;;;;3.45;2.08;;;13.40;99.90;;;;;;5091408;28;20024;-79
2024/02/18 05:39:07;;;;;;;6.70;2.88;;;13.30;99.90;;;;;;5098815;28;20039;-80
2024/02/18 05:41:33;;;;;;;3.85;1.35;;;13.40;99.90;;;;;;5097062;28;20360;-79
2024/02/18 05:44:01;;;;;;;6.68;2.85;;;13.40;99.90;;;;;;5104399;28;20028;-80
2024/02/18 05:46:26;;;;;;;9.25;2.47;;;13.30;99.90;;;;;;5105705;28;20122;-78
2024/02/18 05:48:52;;;;;;;6.45;2.58;;;13.40;99.90;;;;;;5094753;28;20314;-78
2024/02/18 05:51:18;;;;;;;7.40;2.92;;;13.30;99.90;;;;;;5098912;28;20058;-78
2024/02/18 05:53:43;;;;;;;4.53;1.83;;;13.30;99.90;;;;;;5096721;28;20028;-78
2024/02/18 05:56:12;;;;;;;4.57;2.13;;;13.30;99.90;;;;;;5095196;28;20127;-79
2024/02/18 05:58:38;;;;;;;5.13;2.50;;;13.30;99.90;;;;;;5094488;28;20113;-78
2024/02/18 06:01:04;;;;;;;1.48;1.17;;;13.30;99.90;;;;;;5094893;28;20028;-79
2024/02/18 06:03:29;;;;;;;1.88;1.30;;;13.30;99.90;;;;;;5096307;28;20027;-78
2024/02/18 06:05:55;;;;;;;2.70;1.70;;;13.30;99.90;;;;;;5104927;28;20118;-79
2024/02/18 06:08:21;;;;;;;1.40;1.30;;;13.30;99.90;;;;;;5094831;28;20459;-79
2024/02/18 06:10:49;;;;;;;1.63;1.35;;;13.30;99.90;;;;;;5094453;28;20099;-79
2024/02/18 06:13:15;;;;;;;4.78;2.28;;;13.30;99.90;;;;;;5099456;28;20089;-79
2024/02/18 06:15:40;;;;;;;4.90;1.40;;;13.30;99.90;;;;;;5089916;28;20476;-79
2024/02/18 06:18:07;;;;;;;4.03;1.70;;;13.30;99.90;;;;;;5105293;28;20039;-79
2024/02/18 06:20:33;;;;;;;5.53;1.92;;;13.30;99.90;;;;;;5107127;28;20448;-79
2024/02/18 06:22:58;;;;;;;5.28;1.88;;;13.20;99.90;;;;;;5103179;28;20042;-72
2024/02/18 06:25:24;;;;;;;2.80;1.10;;;13.20;99.90;;;;;;5092604;28;20115;-78
2024/02/18 06:27:50;;;;;;;2.75;1.98;;;13.20;99.90;;;;;;5091534;28;20036;-78
2024/02/18 06:30:16;;;;;;;1.75;1.08;;;13.20;99.90;;;;;;5098630;28;20046;-78
2024/02/18 06:32:42;;;;;;;0.85;0.75;;;13.20;99.90;;;;;;5089287;28;20038;-78
2024/02/18 06:35:10;;;;;;;1.85;1.33;;;13.30;99.90;;;;;;5088447;28;20032;-79
2024/02/18 06:37:36;;;;;;;4.85;1.13;;;13.20;99.90;;;;;;5088808;28;20443;-79
2024/02/18 06:40:02;;;;;;;3.25;1.90;;;13.30;99.90;;;;;;5087664;28;20075;-79
2024/02/18 06:42:28;;;;;;;1.02;1.02;;;13.20;99.90;;;;;;5088733;28;20032;-79
2024/02/18 06:44:53;;;;;;;2.13;1.42;;;13.20;99.90;;;;;;5093156;28;20130;-79
2024/02/18 06:47:19;;;;;;;2.20;1.02;;;13.20;99.90;;;;;;5088502;28;20032;-77
2024/02/18 06:49:45;;;;;;;5.20;1.73;;;13.20;99.90;;;;;;5099670;28;20035;-78
2024/02/18 06:52:13;;;;;;;3.75;1.98;;;13.20;99.90;;;;;;5087070;28;20040;-79
2024/02/18 06:54:39;;;;;;;2.20;1.38;;;13.20;99.90;;;;;;5095241;28;20546;-79
2024/02/18 06:57:04;;;;;;;2.05;1.55;;;13.20;99.90;;;;;;5087308;28;20050;-79
2024/02/18 06:59:30;;;;;;;2.35;1.33;;;13.10;99.90;;;;;;5092788;28;20024;-80
2024/02/18 07:01:56;;;;;;;3.90;1.58;;;13.10;99.90;;;;;;5099175;28;20076;-78
2024/02/18 07:04:24;;;;;;;5.50;1.58;;;13.10;99.90;;;;;;5101070;28;20020;-79
2024/02/18 07:06:49;;;;;;;1.40;1.30;;;13.10;99.90;;;;;;5099073;28;20084;-78
2024/02/18 07:09:15;;;;;;;5.68;1.83;;;13.20;99.90;;;;;;5095767;28;20031;-79
2024/02/18 07:11:40;;;;;;;1.58;0.80;;;13.20;99.90;;;;;;5092758;28;20032;-79
2024/02/18 07:14:06;;;;;;;4.20;1.98;;;13.20;99.90;;;;;;5088101;28;20028;-78
2024/02/18 07:16:32;;;;;;;6.75;1.85;;;13.20;99.90;;;;;;5084291;28;20546;-79
2024/02/18 07:18:57;;;;;;;1.13;1.02;;;13.10;99.90;;;;;;5094136;28;20176;-79
2024/02/18 07:21:23;;;;;;;2.60;1.38;;;13.20;99.90;;;;;;5107091;28;20039;-78
2024/02/18 07:23:50;;;;;;;2.95;1.10;;;13.20;99.90;;;;;;5116183;28;20035;-78
2024/02/18 07:26:19;;;;;;;4.30;1.55;;;13.20;99.90;;;;;;5088770;28;20043;-78
2024/02/18 07:28:45;;;;;;;1.80;1.55;;;13.20;99.90;;;;;;5087023;28;20051;-79
2024/02/18 07:31:10;;;;;;;9.00;2.13;;;13.20;99.90;;;;;;5090414;28;20020;-79
2024/02/18 07:33:36;;;;;;;3.80;1.67;;;13.20;99.90;;;;;;5104511;28;20081;-79
2024/02/18 07:36:02;;;;;;;3.90;1.95;;;13.20;99.90;;;;;;5110094;28;20115;-78
2024/02/18 07:38:28;;;;;;;7.00;2.50;;;13.20;99.90;;;;;;5090807;28;20118;-78
2024/02/18 07:40:54;;;;;;;4.97;1.75;;;13.20;99.90;;;;;;5092706;28;20181;-79
2024/02/18 07:43:20;;;;;;;2.85;1.80;;;13.20;99.90;;;;;;5112250;28;20039;-78
2024/02/18 07:45:46;;;;;;;7.35;1.83;;;13.20;99.90;;;;;;5096375;28;20115;-78
2024/02/18 07:48:13;;;;;;;4.13;1.67;;;13.20;99.90;;;;;;5090989;28;20165;-78
2024/02/18 07:50:39;;;;;;;3.78;2.05;;;13.10;99.90;;;;;;5089019;28;20052;-78
2024/02/18 07:53:05;;;;;;;3.50;2.00;;;13.10;99.90;;;;;;5101681;28;20038;-78
2024/02/18 07:55:31;;;;;;;3.20;1.70;;;13.10;99.90;;;;;;5093427;28;20051;-78
2024/02/18 07:58:00;;;;;;;5.43;2.33;;;13.10;99.90;;;;;;5096808;28;20143;-79
2024/02/18 08:00:26;;;;;;;3.05;1.27;;;13.10;99.90;;;;;;5095860;28;20026;-78
2024/02/18 08:02:52;;;;;;;3.25;1.77;;;13.10;99.90;;;;;;5090196;28;20032;-78
2024/02/18 08:05:18;;;;;;;3.95;1.60;;;13.00;99.90;;;;;;5089939;28;20035;-78
2024/02/18 08:07:44;;;;;;;5.88;2.38;;;13.00;99.90;;;;;;5100352;28;20031;-80
2024/02/18 08:10:10;;;;;;;11.75;2.88;;;13.00;99.90;;;;;;5095956;28;20050;-79
2024/02/18 08:12:36;;;;;;;3.45;2.10;;;13.00;99.90;;;;;;5092348;28;20432;-79
2024/02/18 08:15:02;;;;;;;1.90;1.45;;;13.00;99.90;;;;;;5094379;28;20657;-77
2024/02/18 08:17:27;;;;;;;10.15;1.95;;;13.00;99.90;;;;;;5110204;28;20130;-77
2024/02/18 08:19:53;;;;;;;4.93;2.15;;;13.00;99.90;;;;;;5091562;28;20028;-77
2024/02/18 08:22:19;;;;;;;10.50;2.42;;;13.00;99.90;;;;;;5097887;27;20032;-77
2024/02/18 08:24:44;;;;;;;4.03;1.80;;;13.00;99.90;;;;;;5109727;27;20793;-78
2024/02/18 08:27:10;;;;;;;3.78;1.85;;;13.00;99.90;;;;;;5094615;28;20032;-77
2024/02/18 08:29:38;;;;;;;6.80;1.95;;;13.00;99.90;;;;;;5106190;28;20032;-77
2024/02/18 08:32:06;;;;;;;3.28;1.90;;;13.00;99.90;;;;;;5096266;28;20078;-78
2024/02/18 08:34:32;;;;;;;8.80;2.88;;;13.00;99.90;;;;;;5099238;28;20449;-78
2024/02/18 08:36:57;;;;;;;6.85;2.88;;;13.00;99.90;;;;;;5092796;28;20471;-77
2024/02/18 08:39:23;;;;;;;5.78;1.75;;;12.90;99.90;;;;;;5101064;28;20031;-78
2024/02/18 08:41:50;;;;;;;2.45;1.63;;;12.90;99.90;;;;;;5098172;28;20042;-82
2024/02/18 08:44:16;;;;;;;4.80;2.45;;;12.80;99.90;;;;;;5102364;28;20032;-78
2024/02/18 08:46:42;;;;;;;8.15;2.50;;;12.90;99.90;;;;;;5098833;28;20042;-78
2024/02/18 08:49:08;;;;;;;6.53;2.35;;;12.90;99.90;;;;;;5104856;28;20473;-78
2024/02/18 08:51:35;;;;;;;6.90;3.15;;;12.90;99.90;;;;;;5104720;28;20086;-78
2024/02/18 08:54:01;;;;;;;5.30;2.42;;;12.80;99.90;;;;;;5101590;28;20035;-78
2024/02/18 08:56:27;;;;;;;7.20;2.40;;;12.80;99.90;;;;;;5095176;28;20031;-77
2024/02/18 08:58:53;;;;;;;4.35;1.58;;;12.80;99.90;;;;;;5091211;28;20089;-78
2024/02/18 09:01:19;;;;;;;5.70;2.08;;;12.80;99.90;;;;;;5088342;28;20078;-78
2024/02/18 09:03:46;;;;;;;3.13;1.65;;;12.80;99.90;;;;;;5088498;28;20132;-78
2024/02/18 09:06:12;;;;;;;8.63;2.30;;;12.80;99.90;;;;;;5092170;28;20099;-78
2024/02/18 09:08:37;;;;;;;8.48;2.30;;;12.80;99.90;;;;;;5095980;28;20241;-78
2024/02/18 09:11:03;;;;;;;5.03;2.15;;;12.80;99.90;;;;;;5088262;28;20435;-79
2024/02/18 09:13:29;;;;;;;3.78;2.60;;;12.90;99.90;;;;;;5089225;28;20487;-79
2024/02/18 09:15:56;;;;;;;2.50;1.58;;;12.80;99.90;;;;;;5093471;28;20024;-79
2024/02/18 09:18:21;;;;;;;2.58;1.48;;;12.80;99.90;;;;;;5094451;28;20039;-80
2024/02/18 09:20:47;;;;;;;3.30;1.80;;;12.80;99.90;;;;;;5093481;28;20044;-80
2024/02/18 09:23:13;;;;;;;3.28;1.83;;;12.80;99.90;;;;;;5092943;27;20040;-82
2024/02/18 09:25:39;;;;;;;5.32;2.15;;;12.80;99.90;;;;;;5093610;28;20040;-79
2024/02/18 09:28:06;;;;;;;4.22;1.95;;;12.80;99.90;;;;;;5095663;28;20032;-79
2024/02/18 09:30:31;;;;;;;2.67;1.40;;;12.80;99.90;;;;;;5097327;28;20495;-79
2024/02/18 09:32:57;;;;;;;6.22;1.80;;;12.90;99.90;;;;;;5101758;28;20035;-79
2024/02/18 09:35:23;;;;;;;5.78;2.30;;;12.90;99.90;;;;;;5104544;28;20463;-79
2024/02/18 09:37:48;;;;;;;5.00;2.13;;;12.90;99.90;;;;;;5089419;28;20038;-79
2024/02/18 09:40:14;;;;;;;4.40;1.88;;;12.80;99.90;;;;;;5093000;28;20713;-79
2024/02/18 09:42:43;;;;;;;4.38;2.22;;;12.90;99.90;;;;;;5096777;28;20398;-80
2024/02/18 09:45:11;;;;;;;1.77;1.60;;;12.80;99.90;;;;;;5095518;28;20036;-79
2024/02/18 09:47:40;;;;;;;1.75;1.25;;;12.80;99.90;;;;;;5093345;28;20063;-80
2024/02/18 09:50:09;;;;;;;2.75;1.75;;;12.80;99.90;;;;;;5098792;28;20115;-79
2024/02/18 09:52:44;;;;;;;2.38;1.67;;;12.80;99.90;;;;;;5093159;28;20046;-81
2024/02/18 09:55:10;;;;;;;1.70;1.20;;;12.80;99.90;;;;;;5090151;28;20027;-80
2024/02/18 09:57:38;;;;;;;5.38;1.80;;;12.80;99.90;;;;;;5090195;28;20039;-79
2024/02/18 10:00:08;;;;;;;4.60;1.90;;;12.80;99.90;;;;;;5096486;28;20089;-79
2024/02/18 10:02:34;;;;;;;6.55;1.83;;;12.80;99.90;;;;;;5093360;28;20059;-75
2024/02/18 10:05:00;;;;;;;4.78;1.92;;;12.70;99.90;;;;;;5093803;28;20023;-77
2024/02/18 10:07:26;;;;;;;2.55;1.58;;;12.70;99.90;;;;;;5093230;28;20028;-75
2024/02/18 10:09:51;;;;;;;3.28;1.90;;;12.70;99.90;;;;;;5091704;28;20024;-77
2024/02/18 10:12:17;;;;;;;2.38;1.83;;;12.70;99.90;;;;;;5089963;28;20035;-80
2024/02/18 10:14:43;;;;;;;4.22;2.13;;;12.70;99.90;;;;;;5092044;28;20040;-78
2024/02/18 10:17:09;;;;;;;2.95;1.50;;;12.70;99.90;;;;;;5091211;28;20035;-74
2024/02/18 10:19:34;;;;;;;1.67;1.33;;;12.70;99.90;;;;;;5086598;28;20032;-81
2024/02/18 10:22:00;;;;;;;2.83;1.90;;;12.70;99.90;;;;;;5092027;28;20036;-80
2024/02/18 10:24:29;;;;;;;3.80;2.13;;;12.80;99.90;;;;;;5082475;28;20020;-82
2024/02/18 10:26:58;;;;;;;1.70;1.45;;;12.80;99.90;;;;;;5090028;28;20039;-80
2024/02/18 10:29:24;;;;;;;8.15;1.95;;;12.80;99.90;;;;;;5098969;28;20059;-82
2024/02/18 10:31:50;;;;;;;2.67;1.70;;;12.70;99.90;;;;;;5092448;28;20035;-83
2024/02/18 10:34:17;;;;;;;3.55;2.30;;;12.80;99.90;;;;;;5102396;28;20028;-82
2024/02/18 10:36:51;;;;;;;3.40;1.92;;;12.80;99.90;;;;;;5099935;28;20048;-82
2024/02/18 10:39:17;;;;;;;5.97;2.55;;;12.70;99.90;;;;;;5098560;28;21291;-83
2024/02/18 10:41:52;;;;;;;3.17;1.60;;;12.80;99.90;;;;;;5103820;28;20084;-82
2024/02/18 10:44:18;;;;;;;3.67;2.05;;;12.80;99.90;;;;;;5094295;28;20046;-82
2024/02/18 10:46:47;;;;;;;2.58;1.60;;;12.80;99.90;;;;;;5102869;28;20090;-82
2024/02/18 10:49:30;;;;;;;1.33;1.20;;;12.70;99.90;;;;;;5092331;28;20035;-82
2024/02/18 10:52:20;;;;;;;2.25;1.30;;;12.70;99.90;;;;;;5095889;28;20068;-82
2024/02/18 10:55:00;;;;;;;4.40;1.60;;;12.70;99.90;;;;;;5090298;28;20797;-83
2024/02/18 10:57:28;;;;;;;1.20;1.10;;;12.70;99.90;;;;;;5089425;28;20486;-82
2024/02/18 11:00:05;;;;;;;1.55;0.82;;;12.70;99.90;;;;;;5102717;28;20034;-82
2024/02/18 11:02:42;;;;;;;1.52;1.40;;;12.70;99.90;;;;;;5098430;28;20028;-82
2024/02/18 11:05:09;;;;;;;2.30;1.45;;;12.70;99.90;;;;;;5098968;28;20027;-81
2024/02/18 11:07:36;;;;;;;1.92;1.50;;;12.70;99.90;;;;;;5101697;28;20027;-81
2024/02/18 11:10:02;;;;;;;1.55;1.13;;;12.70;99.90;;;;;;5096544;28;20032;-81
2024/02/18 11:12:30;;;;;;;2.33;1.25;;;12.70;99.90;;;;;;5097362;28;20110;-81
2024/02/18 11:14:59;;;;;;;1.63;1.30;;;12.70;99.90;;;;;;5094704;28;20448;-81
2024/02/18 11:17:25;;;;;;;4.43;1.73;;;12.70;99.90;;;;;;5092263;28;20513;-80
2024/02/18 11:19:51;;;;;;;3.28;1.52;;;12.70;99.90;;;;;;5088695;28;20093;-81
2024/02/18 11:22:18;;;;;;;1.55;1.17;;;12.70;99.90;;;;;;5100474;27;20372;-80
2024/02/18 11:24:48;;;;;;;3.85;1.60;;;12.70;99.90;;;;;;5114071;27;20141;-80
2024/02/18 11:27:14;;;;;;;3.05;1.40;;;12.70;99.90;;;;;;5094839;28;20491;-81
2024/02/18 11:29:49;;;;;;;1.80;1.23;;;12.70;99.90;;;;;;5102138;28;20028;-81
2024/02/18 11:32:15;;;;;;;3.40;1.50;;;12.70;99.90;;;;;;5095655;28;20042;-81
2024/02/18 11:34:43;;;;;;;3.13;1.52;;;12.70;99.90;;;;;;5099040;28;20028;-78
2024/02/18 11:37:32;;;;;;;2.45;1.67;;;12.70;99.90;;;;;;5099052;28;20028;-77
2024/02/18 11:40:01;;;;;;;5.90;2.40;;;12.70;99.90;;;;;;5106204;28;20028;-76
2024/02/18 11:42:28;;;;;;;2.17;1.48;;;12.60;99.90;;;;;;5094703;28;20031;-79
2024/02/18 11:45:08;;;;;;;5.57;3.38;;;12.70;99.90;;;;;;5101388;28;20068;-78
2024/02/18 11:47:34;;;;;;;6.47;1.95;;;12.70;99.90;;;;;;5106874;28;20102;-84
2024/02/18 11:50:00;;;;;;;2.47;1.50;;;12.70;99.90;;;;;;5108499;28;20590;-78
2024/02/18 11:52:26;;;;;;;2.55;1.85;;;12.70;99.90;;;;;;5090919;28;20334;-79
2024/02/18 11:54:51;;;;;;;3.00;1.55;;;12.70;99.90;;;;;;5091268;28;20043;-79
2024/02/18 11:57:17;;;;;;;3.42;1.50;;;12.70;99.90;;;;;;5097639;28;20047;-78
2024/02/18 11:59:44;;;;;;;1.95;1.33;;;12.70;99.90;;;;;;5095613;28;20032;-78
2024/02/18 12:02:09;;;;;;;2.78;1.50;;;12.70;99.90;;;;;;5096641;28;20119;-78
2024/02/18 12:04:35;;;;;;;1.77;0.88;;;12.60;99.90;;;;;;5105594;28;20165;-78
2024/02/18 12:07:01;;;;;;;1.20;1.02;;;12.70;99.90;;;;;;5090767;28;20054;-78
2024/02/18 12:09:27;;;;;;;1.10;1.00;;;12.70;99.90;;;;;;5096717;28;20647;-78
2024/02/18 12:11:54;;;;;;;1.08;0.85;;;12.80;99.90;;;;;;5094990;28;20394;-77
2024/02/18 12:14:20;;;;;;;3.08;2.17;;;12.70;99.90;;;;;;5093846;28;20070;-75
2024/02/18 12:16:47;;;;;;;2.40;1.73;;;12.80;99.90;;;;;;5093382;28;20039;-80
2024/02/18 12:19:14;;;;;;;5.70;1.70;;;12.80;99.90;;;;;;5087976;28;20058;-80
2024/02/18 12:21:39;;;;;;;1.50;1.00;;;12.80;99.90;;;;;;5092956;28;20357;-78
2024/02/18 12:24:08;;;;;;;2.45;1.65;;;12.70;99.90;;;;;;5104634;27;20031;-76
2024/02/18 12:26:43;;;;;;;1.65;1.38;;;12.80;99.90;;;;;;5093064;28;20122;-78
2024/02/18 12:29:09;;;;;;;1.38;1.20;;;12.80;99.90;;;;;;5095209;28;20054;-78
2024/02/18 12:31:37;;;;;;;3.15;1.83;;;12.80;99.90;;;;;;5094304;28;20113;-79
2024/02/18 12:34:03;;;;;;;2.92;1.67;;;12.80;99.90;;;;;;5095423;28;20875;-79
2024/02/18 12:36:28;;;;;;;2.80;1.52;;;12.80;99.90;;;;;;5106509;28;20514;-80
2024/02/18 12:38:54;;;;;;;1.40;1.30;;;12.80;99.90;;;;;;5091846;28;20035;-79
2024/02/18 12:41:20;;;;;;;4.28;1.35;;;12.80;99.90;;;;;;5096873;28;20023;-78